Manvel, North Dakota
Current Conditions -  °F | °C
As of 6:53 AM on Monday 22 Dec 2014 (Local Time) from KGFK Reporting Station
Drizzle Drizzle  
Wind Chill: 27°   Ceiling: 600
Heat Index: 34°   Visibility: 4mi
Dew Point: 34°   Wind: 8mph
Humidity: 100%   Direction: 90°E
Pressure: 29.53"   Gusts: NA
Location:  48.08°N, 97.18°W
Report Text: KGFK 221253Z 09007KT 4SM -DZ BR OVC006 01/01 A2953 RMK AO2 DZE09B50 SLP010 P0000 T00110011
Loading
Personal Weather Stations






























Interactive Weather Map New forecast layout! Learn more

10-Day Weather Forecast

Advertisements
Track Severe Weather on mobile